100LL.CA
Aviation Fuel Pricing for Canadians
Please upgrade your browser - Tested with IE9, FireFox, Chrome, Safari

Fuel Airports Other Help
Prices Economy Info List METAR/TAF Kneeboard Help

Reference Airport: Kindersley Regional, SK
N 51 30 55  W 109 10 50
Provinces to show:

CYKY Kindersley Regional, SK
OTHER SITES
FlightAware FltPlan Google Maps SkyVector
WEATHER
METARCYKY 132100Z 21021KT 15SM FEW140 FEW250 03/M01 A2999 RMK AC1CI1 SLP190
REF N 51 30 55  W 109 10 50    2.5N    14E
UTC-6    Elev 2276    A5006 LO2 CAP
OPR Airport Authority 306-460-5825
Reg
PFB-1 C-2,3,4,5,6
FLT PLN NOTAM FILE CYYN
FIC Winnipeg 866-WXBRIEF (Toll free within Canada) or 866-541-4103 (Toll free within Canada & USA)
WXMETAR H24.
SERVICES
FUEL100LL, JA ctc Opr
PRICES100LL public: 2.000; current as of 2018-07-22.
OIL65, 80, 100
RWY DATARwy 08(076)/26(256) 3507x75 asphalt Rwy 26 down 0.42%
Rwy 17(166)/35(346) 2281x100 turf Rwy 17 down 0.57%
RCROpr 14-23Z Mon-Fri (exc hols) PN. No win maint Rwy 17/35
LIGHTING08-(TE LO), 26-(TE LO) ARCAL-122.8 type J
COMM
RCOWinnipeg rdo 123.475 (FISE) 126.7 (bcst)
ATFUNICOM ltd hrs O/T tfc 122.8 5NM 5300 ASL
NAV
NDBM3 402 (M) N51 31 01 W109 10 40 Pvt Unmonitored
CAUTIONLgtd twr 2575 ASL (351 AGL) 2.4NM S of A/D.
Effective 0901Z 0901Z 19 July 2018 to 0901Z 13 September 2018


Please Send Updates!

Desktop Version ]  [ Mobile Version ]  [ Disclaimer ]